<?xml version="1.0" encoding="utf-8"?>
<gpx xmlns:xsi="http://www.w3.org/2001/XMLSchema-instance" xmlns:xsd="http://www.w3.org/2001/XMLSchema" version="1.1" creator="Shapelink.com" xmlns="http://www.topografix.com/GPX/1/1" xmlns:gpxtpx="http://www.garmin.com/xmlschemas/TrackPointExtension/v1">
  <metadata>
    <name>Cykling 12.50 km, 2019-08-27</name>
    <desc></desc>
    <author><name>Henrik Staffas</name></author> 
    <time>2019-08-27T07:30:05Z</time>
  </metadata>
  <trk>
    <name>Cykling 12.50 km, 2019-08-27</name>
    <trkseg>
      <trkpt lat="59.42176008412" lon="17.966529224556">
        <ele>40.4</ele>
        <time>2019-08-27T07:30:05Z</time>
      </trkpt>
      <trkpt lat="59.421761006129" lon="17.966499636449">
        <ele>40.2</ele>
        <time>2019-08-27T07:30:07Z</time>
      </trkpt>
      <trkpt lat="59.421760503215" lon="17.966465019202">
        <ele>40</ele>
        <time>2019-08-27T07:30:09Z</time>
      </trkpt>
      <trkpt lat="59.421411229442" lon="17.965636049292">
        <ele>39.8</ele>
        <time>2019-08-27T07:30:21Z</time>
      </trkpt>
      <trkpt lat="59.4213091379" lon="17.965352238158">
        <ele>39</ele>
        <time>2019-08-27T07:30:24Z</time>
      </trkpt>
      <trkpt lat="59.421077881279" lon="17.964647488006">
        <ele>38</ele>
        <time>2019-08-27T07:30:31Z</time>
      </trkpt>
      <trkpt lat="59.421077126908" lon="17.964400305775">
        <ele>37.6</ele>
        <time>2019-08-27T07:30:33Z</time>
      </trkpt>
      <trkpt lat="59.421162119374" lon="17.96389781087">
        <ele>36.8</ele>
        <time>2019-08-27T07:30:37Z</time>
      </trkpt>
      <trkpt lat="59.421233030248" lon="17.96342926266">
        <ele>36.6</ele>
        <time>2019-08-27T07:30:41Z</time>
      </trkpt>
      <trkpt lat="59.421101685875" lon="17.962323438593">
        <ele>36.2</ele>
        <time>2019-08-27T07:30:55Z</time>
      </trkpt>
      <trkpt lat="59.420926671803" lon="17.961305456838">
        <ele>35.8</ele>
        <time>2019-08-27T07:31:04Z</time>
      </trkpt>
      <trkpt lat="59.420892725108" lon="17.961002786429">
        <ele>35.6</ele>
        <time>2019-08-27T07:31:07Z</time>
      </trkpt>
      <trkpt lat="59.420870680711" lon="17.960836405714">
        <ele>35.6</ele>
        <time>2019-08-27T07:31:09Z</time>
      </trkpt>
      <trkpt lat="59.420823993528" lon="17.96049811223">
        <ele>35.6</ele>
        <time>2019-08-27T07:31:13Z</time>
      </trkpt>
      <trkpt lat="59.420796081801" lon="17.96031287224">
        <ele>35.6</ele>
        <time>2019-08-27T07:31:15Z</time>
      </trkpt>
      <trkpt lat="59.420666916722" lon="17.95927435483">
        <ele>37</ele>
        <time>2019-08-27T07:31:25Z</time>
      </trkpt>
      <trkpt lat="59.420636993339" lon="17.959064220597">
        <ele>38.2</ele>
        <time>2019-08-27T07:31:28Z</time>
      </trkpt>
      <trkpt lat="59.420560718049" lon="17.958902449927">
        <ele>38.8</ele>
        <time>2019-08-27T07:31:36Z</time>
      </trkpt>
      <trkpt lat="59.420490310089" lon="17.958890128534">
        <ele>38.6</ele>
        <time>2019-08-27T07:31:40Z</time>
      </trkpt>
      <trkpt lat="59.420426356192" lon="17.958918626994">
        <ele>38.4</ele>
        <time>2019-08-27T07:31:42Z</time>
      </trkpt>
      <trkpt lat="59.419898883225" lon="17.959335458881">
        <ele>37.8</ele>
        <time>2019-08-27T07:31:52Z</time>
      </trkpt>
      <trkpt lat="59.419355484648" lon="17.959423971745">
        <ele>37.4</ele>
        <time>2019-08-27T07:32:00Z</time>
      </trkpt>
      <trkpt lat="59.418789203484" lon="17.959627903372">
        <ele>37.4</ele>
        <time>2019-08-27T07:32:08Z</time>
      </trkpt>
      <trkpt lat="59.41820951128" lon="17.959810377335">
        <ele>37.2</ele>
        <time>2019-08-27T07:32:16Z</time>
      </trkpt>
      <trkpt lat="59.417634177664" lon="17.960026714174">
        <ele>37.4</ele>
        <time>2019-08-27T07:32:24Z</time>
      </trkpt>
      <trkpt lat="59.417082229549" lon="17.96028521197">
        <ele>38.8</ele>
        <time>2019-08-27T07:32:32Z</time>
      </trkpt>
      <trkpt lat="59.416836388422" lon="17.960508002872">
        <ele>39.2</ele>
        <time>2019-08-27T07:32:36Z</time>
      </trkpt>
      <trkpt lat="59.4165063092" lon="17.96084177013">
        <ele>40.2</ele>
        <time>2019-08-27T07:32:42Z</time>
      </trkpt>
      <trkpt lat="59.416089561132" lon="17.961222895123">
        <ele>41.2</ele>
        <time>2019-08-27T07:32:50Z</time>
      </trkpt>
      <trkpt lat="59.415808516025" lon="17.961543418979">
        <ele>42.6</ele>
        <time>2019-08-27T07:32:56Z</time>
      </trkpt>
      <trkpt lat="59.415450273619" lon="17.962058905829">
        <ele>43.6</ele>
        <time>2019-08-27T07:33:04Z</time>
      </trkpt>
      <trkpt lat="59.415233769142" lon="17.962422093556">
        <ele>44.6</ele>
        <time>2019-08-27T07:33:09Z</time>
      </trkpt>
      <trkpt lat="59.414844010792" lon="17.963221642997">
        <ele>45.6</ele>
        <time>2019-08-27T07:33:19Z</time>
      </trkpt>
      <trkpt lat="59.414713253152" lon="17.963563624517">
        <ele>46.2</ele>
        <time>2019-08-27T07:33:23Z</time>
      </trkpt>
      <trkpt lat="59.414596325647" lon="17.96409981466">
        <ele>46.8</ele>
        <time>2019-08-27T07:33:29Z</time>
      </trkpt>
      <trkpt lat="59.414444697076" lon="17.964612284026">
        <ele>47.8</ele>
        <time>2019-08-27T07:33:35Z</time>
      </trkpt>
      <trkpt lat="59.414347383217" lon="17.96492710819">
        <ele>49</ele>
        <time>2019-08-27T07:33:39Z</time>
      </trkpt>
      <trkpt lat="59.414223163459" lon="17.965335641996">
        <ele>50.6</ele>
        <time>2019-08-27T07:33:44Z</time>
      </trkpt>
      <trkpt lat="59.414148983644" lon="17.965586512263">
        <ele>51.6</ele>
        <time>2019-08-27T07:33:47Z</time>
      </trkpt>
      <trkpt lat="59.41400263567" lon="17.966095964145">
        <ele>53</ele>
        <time>2019-08-27T07:33:53Z</time>
      </trkpt>
      <trkpt lat="59.413836757869" lon="17.966591082978">
        <ele>54.2</ele>
        <time>2019-08-27T07:33:59Z</time>
      </trkpt>
      <trkpt lat="59.413662498168" lon="17.966984780821">
        <ele>55.2</ele>
        <time>2019-08-27T07:34:05Z</time>
      </trkpt>
      <trkpt lat="59.413496704186" lon="17.967263478996">
        <ele>56.4</ele>
        <time>2019-08-27T07:34:10Z</time>
      </trkpt>
      <trkpt lat="59.413322612123" lon="17.967462381483">
        <ele>57.4</ele>
        <time>2019-08-27T07:34:15Z</time>
      </trkpt>
      <trkpt lat="59.413133767916" lon="17.967702439099">
        <ele>58.6</ele>
        <time>2019-08-27T07:34:20Z</time>
      </trkpt>
      <trkpt lat="59.41288868116" lon="17.967881225026">
        <ele>59.6</ele>
        <time>2019-08-27T07:34:26Z</time>
      </trkpt>
      <trkpt lat="59.412571761521" lon="17.968030171389">
        <ele>60.6</ele>
        <time>2019-08-27T07:34:33Z</time>
      </trkpt>
      <trkpt lat="59.412221230463" lon="17.968090269612">
        <ele>61.8</ele>
        <time>2019-08-27T07:34:40Z</time>
      </trkpt>
      <trkpt lat="59.411848990284" lon="17.968082306807">
        <ele>61.6</ele>
        <time>2019-08-27T07:34:47Z</time>
      </trkpt>
      <trkpt lat="59.411497704855" lon="17.9682371205">
        <ele>61.4</ele>
        <time>2019-08-27T07:34:53Z</time>
      </trkpt>
      <trkpt lat="59.41091977285" lon="17.96856652917">
        <ele>60.6</ele>
        <time>2019-08-27T07:35:02Z</time>
      </trkpt>
      <trkpt lat="59.41050151604" lon="17.969312853546">
        <ele>60.6</ele>
        <time>2019-08-27T07:35:10Z</time>
      </trkpt>
      <trkpt lat="59.410227930824" lon="17.969897993985">
        <ele>59.8</ele>
        <time>2019-08-27T07:35:16Z</time>
      </trkpt>
      <trkpt lat="59.410140759064" lon="17.970117013032">
        <ele>59.2</ele>
        <time>2019-08-27T07:35:18Z</time>
      </trkpt>
      <trkpt lat="59.410025591758" lon="17.970486654822">
        <ele>58</ele>
        <time>2019-08-27T07:35:21Z</time>
      </trkpt>
      <trkpt lat="59.409764663211" lon="17.971236248139">
        <ele>56.8</ele>
        <time>2019-08-27T07:35:27Z</time>
      </trkpt>
      <trkpt lat="59.409463585363" lon="17.971991960243">
        <ele>55.8</ele>
        <time>2019-08-27T07:35:33Z</time>
      </trkpt>
      <trkpt lat="59.409176170012" lon="17.972570311343">
        <ele>54.6</ele>
        <time>2019-08-27T07:35:38Z</time>
      </trkpt>
      <trkpt lat="59.408817759968" lon="17.973267266328">
        <ele>53.6</ele>
        <time>2019-08-27T07:35:44Z</time>
      </trkpt>
      <trkpt lat="59.408383493729" lon="17.974049549055">
        <ele>52.8</ele>
        <time>2019-08-27T07:35:51Z</time>
      </trkpt>
      <trkpt lat="59.408186351441" lon="17.974357164785">
        <ele>52.4</ele>
        <time>2019-08-27T07:35:54Z</time>
      </trkpt>
      <trkpt lat="59.407659884302" lon="17.974825880633">
        <ele>51.6</ele>
        <time>2019-08-27T07:36:01Z</time>
      </trkpt>
      <trkpt lat="59.407502891315" lon="17.974910118728">
        <ele>51.4</ele>
        <time>2019-08-27T07:36:03Z</time>
      </trkpt>
      <trkpt lat="59.406908363148" lon="17.975104327351">
        <ele>51</ele>
        <time>2019-08-27T07:36:11Z</time>
      </trkpt>
      <trkpt lat="59.406754136188" lon="17.975193510767">
        <ele>51</ele>
        <time>2019-08-27T07:36:13Z</time>
      </trkpt>
      <trkpt lat="59.406604435454" lon="17.975360562034">
        <ele>50.2</ele>
        <time>2019-08-27T07:36:15Z</time>
      </trkpt>
      <trkpt lat="59.406373346471" lon="17.975641104227">
        <ele>48.8</ele>
        <time>2019-08-27T07:36:18Z</time>
      </trkpt>
      <trkpt lat="59.406160362392" lon="17.975969255612">
        <ele>47.8</ele>
        <time>2019-08-27T07:36:21Z</time>
      </trkpt>
      <trkpt lat="59.40596523176" lon="17.976357421401">
        <ele>46.6</ele>
        <time>2019-08-27T07:36:24Z</time>
      </trkpt>
      <trkpt lat="59.405902032234" lon="17.976483988091">
        <ele>46.2</ele>
        <time>2019-08-27T07:36:25Z</time>
      </trkpt>
      <trkpt lat="59.405831624274" lon="17.976595215904">
        <ele>45.6</ele>
        <time>2019-08-27T07:36:26Z</time>
      </trkpt>
      <trkpt lat="59.405759623753" lon="17.976685488967">
        <ele>45.2</ele>
        <time>2019-08-27T07:36:27Z</time>
      </trkpt>
      <trkpt lat="59.405620651851" lon="17.976697307446">
        <ele>44.4</ele>
        <time>2019-08-27T07:36:29Z</time>
      </trkpt>
      <trkpt lat="59.405497354102" lon="17.97661818231">
        <ele>44.2</ele>
        <time>2019-08-27T07:36:31Z</time>
      </trkpt>
      <trkpt lat="59.405375900371" lon="17.976483066082">
        <ele>43.8</ele>
        <time>2019-08-27T07:36:33Z</time>
      </trkpt>
      <trkpt lat="59.405240700324" lon="17.976403270394">
        <ele>43.6</ele>
        <time>2019-08-27T07:36:35Z</time>
      </trkpt>
      <trkpt lat="59.405175824418" lon="17.976336215194">
        <ele>43.4</ele>
        <time>2019-08-27T07:36:36Z</time>
      </trkpt>
      <trkpt lat="59.405116229109" lon="17.97624015862">
        <ele>43.4</ele>
        <time>2019-08-27T07:36:37Z</time>
      </trkpt>
      <trkpt lat="59.404779528186" lon="17.975363579518">
        <ele>43</ele>
        <time>2019-08-27T07:36:44Z</time>
      </trkpt>
      <trkpt lat="59.404680454128" lon="17.975109691767">
        <ele>43</ele>
        <time>2019-08-27T07:36:46Z</time>
      </trkpt>
      <trkpt lat="59.404316260573" lon="17.974671150759">
        <ele>43.2</ele>
        <time>2019-08-27T07:36:51Z</time>
      </trkpt>
      <trkpt lat="59.403745034088" lon="17.974386585254">
        <ele>43.6</ele>
        <time>2019-08-27T07:36:59Z</time>
      </trkpt>
      <trkpt lat="59.403558033899" lon="17.974319781511">
        <ele>43.8</ele>
        <time>2019-08-27T07:37:02Z</time>
      </trkpt>
      <trkpt lat="59.403114882846" lon="17.973917869406">
        <ele>44</ele>
        <time>2019-08-27T07:37:09Z</time>
      </trkpt>
      <trkpt lat="59.402961242619" lon="17.97391585775">
        <ele>44</ele>
        <time>2019-08-27T07:37:11Z</time>
      </trkpt>
      <trkpt lat="59.402837190499" lon="17.974032114703">
        <ele>44.2</ele>
        <time>2019-08-27T07:37:13Z</time>
      </trkpt>
      <trkpt lat="59.402483641957" lon="17.974867790133">
        <ele>44.2</ele>
        <time>2019-08-27T07:37:21Z</time>
      </trkpt>
      <trkpt lat="59.402127495026" lon="17.975587460067">
        <ele>44.8</ele>
        <time>2019-08-27T07:37:27Z</time>
      </trkpt>
      <trkpt lat="59.401700437221" lon="17.976491028887">
        <ele>44.8</ele>
        <time>2019-08-27T07:37:34Z</time>
      </trkpt>
      <trkpt lat="59.401287377189" lon="17.977394932983">
        <ele>43.8</ele>
        <time>2019-08-27T07:37:41Z</time>
      </trkpt>
      <trkpt lat="59.401233565391" lon="17.977521080578">
        <ele>43.8</ele>
        <time>2019-08-27T07:37:42Z</time>
      </trkpt>
      <trkpt lat="59.400849422914" lon="17.978382488441">
        <ele>43</ele>
        <time>2019-08-27T07:37:49Z</time>
      </trkpt>
      <trkpt lat="59.400524959565" lon="17.979125879152">
        <ele>42.6</ele>
        <time>2019-08-27T07:37:55Z</time>
      </trkpt>
      <trkpt lat="59.400143415477" lon="17.979960967849">
        <ele>42.2</ele>
        <time>2019-08-27T07:38:02Z</time>
      </trkpt>
      <trkpt lat="59.399861615999" lon="17.980507551548">
        <ele>41.8</ele>
        <time>2019-08-27T07:38:07Z</time>
      </trkpt>
      <trkpt lat="59.399754327679" lon="17.980738891988">
        <ele>41.6</ele>
        <time>2019-08-27T07:38:09Z</time>
      </trkpt>
      <trkpt lat="59.399705125926" lon="17.980862189737">
        <ele>41.4</ele>
        <time>2019-08-27T07:38:10Z</time>
      </trkpt>
      <trkpt lat="59.399561627798" lon="17.981239710513">
        <ele>41</ele>
        <time>2019-08-27T07:38:13Z</time>
      </trkpt>
      <trkpt lat="59.399373537962" lon="17.981564844414">
        <ele>40.4</ele>
        <time>2019-08-27T07:38:16Z</time>
      </trkpt>
      <trkpt lat="59.399038178143" lon="17.982240341735">
        <ele>40.2</ele>
        <time>2019-08-27T07:38:22Z</time>
      </trkpt>
      <trkpt lat="59.398782865469" lon="17.982579054314">
        <ele>38.8</ele>
        <time>2019-08-27T07:38:26Z</time>
      </trkpt>
      <trkpt lat="59.398586729009" lon="17.982840737232">
        <ele>37.8</ele>
        <time>2019-08-27T07:38:29Z</time>
      </trkpt>
      <trkpt lat="59.398134944599" lon="17.983443898756">
        <ele>36.4</ele>
        <time>2019-08-27T07:38:36Z</time>
      </trkpt>
      <trkpt lat="59.397629096934" lon="17.984048233746">
        <ele>35.6</ele>
        <time>2019-08-27T07:38:43Z</time>
      </trkpt>
      <trkpt lat="59.397563466657" lon="17.984118474068">
        <ele>35.4</ele>
        <time>2019-08-27T07:38:44Z</time>
      </trkpt>
      <trkpt lat="59.397049488549" lon="17.98461702948">
        <ele>35.2</ele>
        <time>2019-08-27T07:38:51Z</time>
      </trkpt>
      <trkpt lat="59.396661993312" lon="17.985013158074">
        <ele>34.4</ele>
        <time>2019-08-27T07:38:56Z</time>
      </trkpt>
      <trkpt lat="59.396153128163" lon="17.985510623839">
        <ele>33.4</ele>
        <time>2019-08-27T07:39:03Z</time>
      </trkpt>
      <trkpt lat="59.395596402365" lon="17.985976070746">
        <ele>34</ele>
        <time>2019-08-27T07:39:11Z</time>
      </trkpt>
      <trkpt lat="59.395078568583" lon="17.986298103344">
        <ele>34</ele>
        <time>2019-08-27T07:39:19Z</time>
      </trkpt>
      <trkpt lat="59.394625694526" lon="17.986570179818">
        <ele>32.2</ele>
        <time>2019-08-27T07:39:25Z</time>
      </trkpt>
      <trkpt lat="59.394047762521" lon="17.986933283726">
        <ele>31.4</ele>
        <time>2019-08-27T07:39:33Z</time>
      </trkpt>
      <trkpt lat="59.39382907875" lon="17.987097988061">
        <ele>31</ele>
        <time>2019-08-27T07:39:36Z</time>
      </trkpt>
      <trkpt lat="59.393603186545" lon="17.987293537788">
        <ele>31</ele>
        <time>2019-08-27T07:39:39Z</time>
      </trkpt>
      <trkpt lat="59.393022153237" lon="17.987580114949">
        <ele>30.8</ele>
        <time>2019-08-27T07:39:46Z</time>
      </trkpt>
      <trkpt lat="59.39276960659" lon="17.987842049324">
        <ele>30</ele>
        <time>2019-08-27T07:39:51Z</time>
      </trkpt>
      <trkpt lat="59.392446568164" lon="17.988398858941">
        <ele>29.4</ele>
        <time>2019-08-27T07:39:57Z</time>
      </trkpt>
      <trkpt lat="59.392360150775" lon="17.988643358964">
        <ele>28.8</ele>
        <time>2019-08-27T07:39:59Z</time>
      </trkpt>
      <trkpt lat="59.392201649046" lon="17.989294297318">
        <ele>27.8</ele>
        <time>2019-08-27T07:40:04Z</time>
      </trkpt>
      <trkpt lat="59.392036525616" lon="17.99002922231">
        <ele>26.8</ele>
        <time>2019-08-27T07:40:09Z</time>
      </trkpt>
      <trkpt lat="59.391827313392" lon="17.990780408188">
        <ele>25.6</ele>
        <time>2019-08-27T07:40:14Z</time>
      </trkpt>
      <trkpt lat="59.391548279941" lon="17.991683893189">
        <ele>24.2</ele>
        <time>2019-08-27T07:40:20Z</time>
      </trkpt>
      <trkpt lat="59.391399501216" lon="17.992133246848">
        <ele>23.2</ele>
        <time>2019-08-27T07:40:23Z</time>
      </trkpt>
      <trkpt lat="59.391151145519" lon="17.992895580653">
        <ele>21.8</ele>
        <time>2019-08-27T07:40:28Z</time>
      </trkpt>
      <trkpt lat="59.390905723487" lon="17.993649616377">
        <ele>20.6</ele>
        <time>2019-08-27T07:40:33Z</time>
      </trkpt>
      <trkpt lat="59.390578158835" lon="17.994670028883">
        <ele>20.6</ele>
        <time>2019-08-27T07:40:40Z</time>
      </trkpt>
      <trkpt lat="59.390274231141" lon="17.995605113647">
        <ele>20.6</ele>
        <time>2019-08-27T07:40:47Z</time>
      </trkpt>
      <trkpt lat="59.389932249621" lon="17.996416313929">
        <ele>20.6</ele>
        <time>2019-08-27T07:40:54Z</time>
      </trkpt>
      <trkpt lat="59.389703675208" lon="17.996724097297">
        <ele>22</ele>
        <time>2019-08-27T07:40:59Z</time>
      </trkpt>
      <trkpt lat="59.389537881226" lon="17.996943283982">
        <ele>23</ele>
        <time>2019-08-27T07:41:03Z</time>
      </trkpt>
      <trkpt lat="59.389347612096" lon="17.997220221958">
        <ele>24.4</ele>
        <time>2019-08-27T07:41:08Z</time>
      </trkpt>
      <trkpt lat="59.389217860284" lon="17.997377717859">
        <ele>25.2</ele>
        <time>2019-08-27T07:41:11Z</time>
      </trkpt>
      <trkpt lat="59.389173268576" lon="17.997438151358">
        <ele>25.6</ele>
        <time>2019-08-27T07:41:12Z</time>
      </trkpt>
      <trkpt lat="59.389129179782" lon="17.997491795518">
        <ele>25.8</ele>
        <time>2019-08-27T07:41:13Z</time>
      </trkpt>
      <trkpt lat="59.389001858721" lon="17.997650381066">
        <ele>26.4</ele>
        <time>2019-08-27T07:41:16Z</time>
      </trkpt>
      <trkpt lat="59.388967492931" lon="17.997736295541">
        <ele>26.6</ele>
        <time>2019-08-27T07:41:17Z</time>
      </trkpt>
      <trkpt lat="59.388868083597" lon="17.997872249959">
        <ele>28.2</ele>
        <time>2019-08-27T07:41:20Z</time>
      </trkpt>
      <trkpt lat="59.388799016741" lon="17.997947267964">
        <ele>29.2</ele>
        <time>2019-08-27T07:41:22Z</time>
      </trkpt>
      <trkpt lat="59.38868510672" lon="17.998068386419">
        <ele>30.4</ele>
        <time>2019-08-27T07:41:25Z</time>
      </trkpt>
      <trkpt lat="59.38854596718" lon="17.998237784618">
        <ele>31.8</ele>
        <time>2019-08-27T07:41:29Z</time>
      </trkpt>
      <trkpt lat="59.388411940599" lon="17.998449595231">
        <ele>32.8</ele>
        <time>2019-08-27T07:41:33Z</time>
      </trkpt>
      <trkpt lat="59.388226532971" lon="17.998720162963">
        <ele>33.2</ele>
        <time>2019-08-27T07:41:38Z</time>
      </trkpt>
      <trkpt lat="59.38797348341" lon="17.999017468956">
        <ele>32.6</ele>
        <time>2019-08-27T07:41:43Z</time>
      </trkpt>
      <trkpt lat="59.387867703832" lon="17.999059210818">
        <ele>32</ele>
        <time>2019-08-27T07:41:45Z</time>
      </trkpt>
      <trkpt lat="59.387835265879" lon="17.999061054836">
        <ele>31.6</ele>
        <time>2019-08-27T07:41:46Z</time>
      </trkpt>
      <trkpt lat="59.38780500722" lon="17.999002130079">
        <ele>31.2</ele>
        <time>2019-08-27T07:41:47Z</time>
      </trkpt>
      <trkpt lat="59.38773879021" lon="17.998815046071">
        <ele>30.2</ele>
        <time>2019-08-27T07:41:49Z</time>
      </trkpt>
      <trkpt lat="59.387693108855" lon="17.998708847398">
        <ele>30.2</ele>
        <time>2019-08-27T07:41:50Z</time>
      </trkpt>
      <trkpt lat="59.387557908808" lon="17.99814290151">
        <ele>31.2</ele>
        <time>2019-08-27T07:41:57Z</time>
      </trkpt>
      <trkpt lat="59.387530499995" lon="17.998077271233">
        <ele>31.4</ele>
        <time>2019-08-27T07:41:58Z</time>
      </trkpt>
      <trkpt lat="59.387414243042" lon="17.997815253039">
        <ele>31.6</ele>
        <time>2019-08-27T07:42:00Z</time>
      </trkpt>
      <trkpt lat="59.386830611345" lon="17.997658176233">
        <ele>30.2</ele>
        <time>2019-08-27T07:42:07Z</time>
      </trkpt>
      <trkpt lat="59.386381006229" lon="17.997678628069">
        <ele>28.8</ele>
        <time>2019-08-27T07:42:12Z</time>
      </trkpt>
      <trkpt lat="59.386114294171" lon="17.997703438493">
        <ele>27.4</ele>
        <time>2019-08-27T07:42:15Z</time>
      </trkpt>
      <trkpt lat="59.385666030159" lon="17.997747024373">
        <ele>26.2</ele>
        <time>2019-08-27T07:42:20Z</time>
      </trkpt>
      <trkpt lat="59.385391103839" lon="17.997762111793">
        <ele>25</ele>
        <time>2019-08-27T07:42:23Z</time>
      </trkpt>
      <trkpt lat="59.384945773492" lon="17.997811062089">
        <ele>23.8</ele>
        <time>2019-08-27T07:42:28Z</time>
      </trkpt>
      <trkpt lat="59.384336157905" lon="17.997870238303">
        <ele>23</ele>
        <time>2019-08-27T07:42:35Z</time>
      </trkpt>
      <trkpt lat="59.384249991973" lon="17.997871914683">
        <ele>22.8</ele>
        <time>2019-08-27T07:42:36Z</time>
      </trkpt>
      <trkpt lat="59.383820754874" lon="17.997932180544">
        <ele>21.6</ele>
        <time>2019-08-27T07:42:41Z</time>
      </trkpt>
      <trkpt lat="59.38365345215" lon="17.998053885732">
        <ele>21.2</ele>
        <time>2019-08-27T07:42:43Z</time>
      </trkpt>
      <trkpt lat="59.383220443196" lon="17.998667021717">
        <ele>20.6</ele>
        <time>2019-08-27T07:42:49Z</time>
      </trkpt>
      <trkpt lat="59.383025228745" lon="17.998974972723">
        <ele>20.2</ele>
        <time>2019-08-27T07:42:52Z</time>
      </trkpt>
      <trkpt lat="59.382934620406" lon="17.999230201578">
        <ele>20</ele>
        <time>2019-08-27T07:42:54Z</time>
      </trkpt>
      <trkpt lat="59.382785254948" lon="17.999783909892">
        <ele>20.6</ele>
        <time>2019-08-27T07:42:58Z</time>
      </trkpt>
      <trkpt lat="59.382658939715" lon="17.99996596476">
        <ele>20.8</ele>
        <time>2019-08-27T07:43:00Z</time>
      </trkpt>
      <trkpt lat="59.382195169188" lon="18.00054599224">
        <ele>20.4</ele>
        <time>2019-08-27T07:43:07Z</time>
      </trkpt>
      <trkpt lat="59.381710611549" lon="18.00124923365">
        <ele>19.4</ele>
        <time>2019-08-27T07:43:15Z</time>
      </trkpt>
      <trkpt lat="59.381652860258" lon="18.001345122586">
        <ele>19.4</ele>
        <time>2019-08-27T07:43:16Z</time>
      </trkpt>
      <trkpt lat="59.381465105698" lon="18.001632370299">
        <ele>19.2</ele>
        <time>2019-08-27T07:43:19Z</time>
      </trkpt>
      <trkpt lat="59.381259497691" lon="18.00170353263">
        <ele>19.2</ele>
        <time>2019-08-27T07:43:22Z</time>
      </trkpt>
      <trkpt lat="59.380687516835" lon="18.001439838056">
        <ele>19.6</ele>
        <time>2019-08-27T07:43:30Z</time>
      </trkpt>
      <trkpt lat="59.38043144979" lon="18.001385271887">
        <ele>20.4</ele>
        <time>2019-08-27T07:43:34Z</time>
      </trkpt>
      <trkpt lat="59.380254507881" lon="18.001349062079">
        <ele>21.6</ele>
        <time>2019-08-27T07:43:37Z</time>
      </trkpt>
      <trkpt lat="59.3801959184" lon="18.001349145898">
        <ele>21.8</ele>
        <time>2019-08-27T07:43:38Z</time>
      </trkpt>
      <trkpt lat="59.379971032023" lon="18.0014294445">
        <ele>22.6</ele>
        <time>2019-08-27T07:43:42Z</time>
      </trkpt>
      <trkpt lat="59.3799193157" lon="18.001463055919">
        <ele>22.8</ele>
        <time>2019-08-27T07:43:43Z</time>
      </trkpt>
      <trkpt lat="59.379588565926" lon="18.001699509318">
        <ele>24</ele>
        <time>2019-08-27T07:43:49Z</time>
      </trkpt>
      <trkpt lat="59.379052962516" lon="18.002132518272">
        <ele>24.4</ele>
        <time>2019-08-27T07:43:59Z</time>
      </trkpt>
      <trkpt lat="59.378752639039" lon="18.002338629193">
        <ele>25</ele>
        <time>2019-08-27T07:44:05Z</time>
      </trkpt>
      <trkpt lat="59.378703353467" lon="18.00236905549">
        <ele>25.2</ele>
        <time>2019-08-27T07:44:06Z</time>
      </trkpt>
      <trkpt lat="59.378552311629" lon="18.002467794272">
        <ele>26.2</ele>
        <time>2019-08-27T07:44:09Z</time>
      </trkpt>
      <trkpt lat="59.378078063727" lon="18.002828970343">
        <ele>27.2</ele>
        <time>2019-08-27T07:44:18Z</time>
      </trkpt>
      <trkpt lat="59.377965327172" lon="18.002926116564">
        <ele>27.2</ele>
        <time>2019-08-27T07:44:20Z</time>
      </trkpt>
      <trkpt lat="59.377802802131" lon="18.003139435919">
        <ele>27</ele>
        <time>2019-08-27T07:44:23Z</time>
      </trkpt>
      <trkpt lat="59.377590237147" lon="18.003212442268">
        <ele>26.2</ele>
        <time>2019-08-27T07:44:26Z</time>
      </trkpt>
      <trkpt lat="59.377518571902" lon="18.003243455298">
        <ele>26</ele>
        <time>2019-08-27T07:44:27Z</time>
      </trkpt>
      <trkpt lat="59.377450259417" lon="18.003290896852">
        <ele>25.8</ele>
        <time>2019-08-27T07:44:28Z</time>
      </trkpt>
      <trkpt lat="59.377095202133" lon="18.003680403745">
        <ele>24.8</ele>
        <time>2019-08-27T07:44:33Z</time>
      </trkpt>
      <trkpt lat="59.376876183086" lon="18.003936889885">
        <ele>23.6</ele>
        <time>2019-08-27T07:44:36Z</time>
      </trkpt>
      <trkpt lat="59.376603771336" lon="18.004061780195">
        <ele>22.6</ele>
        <time>2019-08-27T07:44:39Z</time>
      </trkpt>
      <trkpt lat="59.376335801993" lon="18.004207122341">
        <ele>21.4</ele>
        <time>2019-08-27T07:44:42Z</time>
      </trkpt>
      <trkpt lat="59.376133546746" lon="18.00429940706">
        <ele>20.2</ele>
        <time>2019-08-27T07:44:44Z</time>
      </trkpt>
      <trkpt lat="59.375660975224" lon="18.004572657">
        <ele>19.2</ele>
        <time>2019-08-27T07:44:49Z</time>
      </trkpt>
      <trkpt lat="59.375370626208" lon="18.004793771522">
        <ele>17.8</ele>
        <time>2019-08-27T07:44:52Z</time>
      </trkpt>
      <trkpt lat="59.375177591051" lon="18.004939113668">
        <ele>16.6</ele>
        <time>2019-08-27T07:44:54Z</time>
      </trkpt>
      <trkpt lat="59.374596054829" lon="18.005385366024">
        <ele>15.4</ele>
        <time>2019-08-27T07:45:00Z</time>
      </trkpt>
      <trkpt lat="59.374047375655" lon="18.005844442687">
        <ele>14.6</ele>
        <time>2019-08-27T07:45:06Z</time>
      </trkpt>
      <trkpt lat="59.373534151918" lon="18.006241409471">
        <ele>15.4</ele>
        <time>2019-08-27T07:45:12Z</time>
      </trkpt>
      <trkpt lat="59.372973318989" lon="18.006723033445">
        <ele>15.2</ele>
        <time>2019-08-27T07:45:19Z</time>
      </trkpt>
      <trkpt lat="59.372453641189" lon="18.007125280826">
        <ele>16.2</ele>
        <time>2019-08-27T07:45:27Z</time>
      </trkpt>
      <trkpt lat="59.372348364525" lon="18.007242208331">
        <ele>16.4</ele>
        <time>2019-08-27T07:45:29Z</time>
      </trkpt>
      <trkpt lat="59.371868416931" lon="18.007588296982">
        <ele>17.4</ele>
        <time>2019-08-27T07:45:37Z</time>
      </trkpt>
      <trkpt lat="59.371300878482" lon="18.007794072627">
        <ele>17.2</ele>
        <time>2019-08-27T07:45:45Z</time>
      </trkpt>
      <trkpt lat="59.370764939796" lon="18.007954921288">
        <ele>17.4</ele>
        <time>2019-08-27T07:45:53Z</time>
      </trkpt>
      <trkpt lat="59.370218775192" lon="18.00817771219">
        <ele>18</ele>
        <time>2019-08-27T07:46:02Z</time>
      </trkpt>
      <trkpt lat="59.369919709" lon="18.00830930802">
        <ele>18.4</ele>
        <time>2019-08-27T07:46:07Z</time>
      </trkpt>
      <trkpt lat="59.369390894929" lon="18.008565458884">
        <ele>18.6</ele>
        <time>2019-08-27T07:46:16Z</time>
      </trkpt>
      <trkpt lat="59.36887364788" lon="18.008998970752">
        <ele>19.2</ele>
        <time>2019-08-27T07:46:29Z</time>
      </trkpt>
      <trkpt lat="59.36879150526" lon="18.009092848032">
        <ele>19.6</ele>
        <time>2019-08-27T07:46:31Z</time>
      </trkpt>
      <trkpt lat="59.368473160698" lon="18.009798101098">
        <ele>19.6</ele>
        <time>2019-08-27T07:46:45Z</time>
      </trkpt>
      <trkpt lat="59.368335781357" lon="18.010029692995">
        <ele>19.4</ele>
        <time>2019-08-27T07:46:48Z</time>
      </trkpt>
      <trkpt lat="59.36828691488" lon="18.010236893563">
        <ele>19.6</ele>
        <time>2019-08-27T07:46:50Z</time>
      </trkpt>
      <trkpt lat="59.368246514122" lon="18.010455242058">
        <ele>19.6</ele>
        <time>2019-08-27T07:46:52Z</time>
      </trkpt>
      <trkpt lat="59.368009557809" lon="18.011120094366">
        <ele>19.6</ele>
        <time>2019-08-27T07:46:59Z</time>
      </trkpt>
      <trkpt lat="59.367613680672" lon="18.011853342978">
        <ele>20.4</ele>
        <time>2019-08-27T07:47:08Z</time>
      </trkpt>
      <trkpt lat="59.367474960227" lon="18.012044534117">
        <ele>20.6</ele>
        <time>2019-08-27T07:47:11Z</time>
      </trkpt>
      <trkpt lat="59.367324253665" lon="18.01221527342">
        <ele>20.8</ele>
        <time>2019-08-27T07:47:14Z</time>
      </trkpt>
      <trkpt lat="59.367161309529" lon="18.012292051624">
        <ele>21</ele>
        <time>2019-08-27T07:47:17Z</time>
      </trkpt>
      <trkpt lat="59.367080424194" lon="18.01244242291">
        <ele>22</ele>
        <time>2019-08-27T07:47:19Z</time>
      </trkpt>
      <trkpt lat="59.366998365393" lon="18.012561697347">
        <ele>22.6</ele>
        <time>2019-08-27T07:47:21Z</time>
      </trkpt>
      <trkpt lat="59.366784459305" lon="18.012816758564">
        <ele>23</ele>
        <time>2019-08-27T07:47:26Z</time>
      </trkpt>
      <trkpt lat="59.366455134454" lon="18.013212048968">
        <ele>24.2</ele>
        <time>2019-08-27T07:47:33Z</time>
      </trkpt>
      <trkpt lat="59.366007792451" lon="18.01383214193">
        <ele>24.4</ele>
        <time>2019-08-27T07:47:42Z</time>
      </trkpt>
      <trkpt lat="59.365526336115" lon="18.014460700611">
        <ele>23.8</ele>
        <time>2019-08-27T07:47:51Z</time>
      </trkpt>
      <trkpt lat="59.365238250212" lon="18.014914161401">
        <ele>23.6</ele>
        <time>2019-08-27T07:47:57Z</time>
      </trkpt>
      <trkpt lat="59.365149318253" lon="18.014976774194">
        <ele>23.6</ele>
        <time>2019-08-27T07:47:59Z</time>
      </trkpt>
      <trkpt lat="59.365064493425" lon="18.015013235459">
        <ele>23.6</ele>
        <time>2019-08-27T07:48:01Z</time>
      </trkpt>
      <trkpt lat="59.36496097696" lon="18.015000830247">
        <ele>23.2</ele>
        <time>2019-08-27T07:48:03Z</time>
      </trkpt>
      <trkpt lat="59.36485871778" lon="18.014933775047">
        <ele>23</ele>
        <time>2019-08-27T07:48:05Z</time>
      </trkpt>
      <trkpt lat="59.364720164973" lon="18.014877448679">
        <ele>23</ele>
        <time>2019-08-27T07:48:08Z</time>
      </trkpt>
      <trkpt lat="59.36451841264" lon="18.014700590589">
        <ele>24.2</ele>
        <time>2019-08-27T07:48:13Z</time>
      </trkpt>
      <trkpt lat="59.364407520103" lon="18.014712492887">
        <ele>24.8</ele>
        <time>2019-08-27T07:48:17Z</time>
      </trkpt>
      <trkpt lat="59.364348846803" lon="18.014868815322">
        <ele>25.2</ele>
        <time>2019-08-27T07:48:20Z</time>
      </trkpt>
      <trkpt lat="59.364340967817" lon="18.014938301273">
        <ele>25.4</ele>
        <time>2019-08-27T07:48:21Z</time>
      </trkpt>
      <trkpt lat="59.36434490731" lon="18.015300986086">
        <ele>26.2</ele>
        <time>2019-08-27T07:48:26Z</time>
      </trkpt>
      <trkpt lat="59.364282378336" lon="18.015577002053">
        <ele>27.4</ele>
        <time>2019-08-27T07:48:31Z</time>
      </trkpt>
      <trkpt lat="59.364141981511" lon="18.016248056967">
        <ele>28.4</ele>
        <time>2019-08-27T07:48:40Z</time>
      </trkpt>
      <trkpt lat="59.363953556399" lon="18.01647160224">
        <ele>29.4</ele>
        <time>2019-08-27T07:48:46Z</time>
      </trkpt>
      <trkpt lat="59.363847944459" lon="18.016171865496">
        <ele>29.8</ele>
        <time>2019-08-27T07:48:49Z</time>
      </trkpt>
      <trkpt lat="59.363741159053" lon="18.016447378549">
        <ele>30</ele>
        <time>2019-08-27T07:48:51Z</time>
      </trkpt>
      <trkpt lat="59.363640911529" lon="18.016254343392">
        <ele>30.4</ele>
        <time>2019-08-27T07:48:56Z</time>
      </trkpt>
      <trkpt lat="59.363617609847" lon="18.016189802762">
        <ele>30.6</ele>
        <time>2019-08-27T07:48:57Z</time>
      </trkpt>
      <trkpt lat="59.363456761186" lon="18.016053848344">
        <ele>31.6</ele>
        <time>2019-08-27T07:49:02Z</time>
      </trkpt>
      <trkpt lat="59.363359950241" lon="18.015828459053">
        <ele>32.8</ele>
        <time>2019-08-27T07:49:07Z</time>
      </trkpt>
      <trkpt lat="59.363279232544" lon="18.015839942256">
        <ele>32.8</ele>
        <time>2019-08-27T07:49:09Z</time>
      </trkpt>
      <trkpt lat="59.362757794545" lon="18.016102882459">
        <ele>33.2</ele>
        <time>2019-08-27T07:49:21Z</time>
      </trkpt>
      <trkpt lat="59.362669030224" lon="18.016172452229">
        <ele>33.2</ele>
        <time>2019-08-27T07:49:23Z</time>
      </trkpt>
      <trkpt lat="59.3624011447" lon="18.016389543439">
        <ele>33.8</ele>
        <time>2019-08-27T07:49:30Z</time>
      </trkpt>
      <trkpt lat="59.362223029325" lon="18.016644856113">
        <ele>35</ele>
        <time>2019-08-27T07:49:35Z</time>
      </trkpt>
      <trkpt lat="59.362057067705" lon="18.016746947655">
        <ele>36.2</ele>
        <time>2019-08-27T07:49:40Z</time>
      </trkpt>
      <trkpt lat="59.361807789999" lon="18.016928499609">
        <ele>36.2</ele>
        <time>2019-08-27T07:49:47Z</time>
      </trkpt>
      <trkpt lat="59.361715589099" lon="18.017026148744">
        <ele>36</ele>
        <time>2019-08-27T07:49:49Z</time>
      </trkpt>
      <trkpt lat="59.361504700495" lon="18.017132012141">
        <ele>34.8</ele>
        <time>2019-08-27T07:49:53Z</time>
      </trkpt>
      <trkpt lat="59.361388946456" lon="18.017176855306">
        <ele>33.6</ele>
        <time>2019-08-27T07:49:55Z</time>
      </trkpt>
      <trkpt lat="59.361256596255" lon="18.017215328227">
        <ele>32.4</ele>
        <time>2019-08-27T07:49:57Z</time>
      </trkpt>
      <trkpt lat="59.361024333806" lon="18.017292357888">
        <ele>30.8</ele>
        <time>2019-08-27T07:50:00Z</time>
      </trkpt>
      <trkpt lat="59.360866334991" lon="18.017316162484">
        <ele>29.2</ele>
        <time>2019-08-27T07:50:02Z</time>
      </trkpt>
      <trkpt lat="59.360702636484" lon="18.017343906573">
        <ele>28.2</ele>
        <time>2019-08-27T07:50:04Z</time>
      </trkpt>
      <trkpt lat="59.360143563754" lon="18.01736259821">
        <ele>27.2</ele>
        <time>2019-08-27T07:50:11Z</time>
      </trkpt>
      <trkpt lat="59.360075921821" lon="18.017366286246">
        <ele>27</ele>
        <time>2019-08-27T07:50:12Z</time>
      </trkpt>
      <trkpt lat="59.359532271787" lon="18.017341559641">
        <ele>27.2</ele>
        <time>2019-08-27T07:50:19Z</time>
      </trkpt>
      <trkpt lat="59.358961380578" lon="18.017262183048">
        <ele>26.6</ele>
        <time>2019-08-27T07:50:26Z</time>
      </trkpt>
      <trkpt lat="59.358715790908" lon="18.017203845024">
        <ele>25.8</ele>
        <time>2019-08-27T07:50:29Z</time>
      </trkpt>
      <trkpt lat="59.358379257623" lon="18.017109548649">
        <ele>24.8</ele>
        <time>2019-08-27T07:50:33Z</time>
      </trkpt>
      <trkpt lat="59.357827058051" lon="18.017031177884">
        <ele>23.4</ele>
        <time>2019-08-27T07:50:40Z</time>
      </trkpt>
      <trkpt lat="59.35728231837" lon="18.016865719178">
        <ele>22.8</ele>
        <time>2019-08-27T07:50:47Z</time>
      </trkpt>
      <trkpt lat="59.356757276154" lon="18.016680395369">
        <ele>23.2</ele>
        <time>2019-08-27T07:50:54Z</time>
      </trkpt>
      <trkpt lat="59.356636241518" lon="18.01659062522">
        <ele>23.4</ele>
        <time>2019-08-27T07:50:56Z</time>
      </trkpt>
      <trkpt lat="59.356169118231" lon="18.016425334152">
        <ele>22.2</ele>
        <time>2019-08-27T07:51:03Z</time>
      </trkpt>
      <trkpt lat="59.355647093499" lon="18.01627798035">
        <ele>21.8</ele>
        <time>2019-08-27T07:51:11Z</time>
      </trkpt>
      <trkpt lat="59.35550451738" lon="18.016145630149">
        <ele>21.8</ele>
        <time>2019-08-27T07:51:13Z</time>
      </trkpt>
      <trkpt lat="59.355446430813" lon="18.015958881417">
        <ele>21.4</ele>
        <time>2019-08-27T07:51:15Z</time>
      </trkpt>
      <trkpt lat="59.35533771757" lon="18.015845222853">
        <ele>21.2</ele>
        <time>2019-08-27T07:51:17Z</time>
      </trkpt>
      <trkpt lat="59.355034711885" lon="18.015636345905">
        <ele>20.2</ele>
        <time>2019-08-27T07:51:25Z</time>
      </trkpt>
      <trkpt lat="59.354913677249" lon="18.015448256069">
        <ele>19.6</ele>
        <time>2019-08-27T07:51:29Z</time>
      </trkpt>
      <trkpt lat="59.354814603191" lon="18.015355468436">
        <ele>19</ele>
        <time>2019-08-27T07:51:31Z</time>
      </trkpt>
      <trkpt lat="59.35469566403" lon="18.015158326148">
        <ele>18.4</ele>
        <time>2019-08-27T07:51:36Z</time>
      </trkpt>
      <trkpt lat="59.354863553487" lon="18.014773345481">
        <ele>18.6</ele>
        <time>2019-08-27T07:51:42Z</time>
      </trkpt>
      <trkpt lat="59.355046278907" lon="18.014270096205">
        <ele>18</ele>
        <time>2019-08-27T07:51:47Z</time>
      </trkpt>
      <trkpt lat="59.35530586635" lon="18.013303830773">
        <ele>17.4</ele>
        <time>2019-08-27T07:51:56Z</time>
      </trkpt>
      <trkpt lat="59.355466379735" lon="18.012319711894">
        <ele>18</ele>
        <time>2019-08-27T07:52:06Z</time>
      </trkpt>
      <trkpt lat="59.355672909751" lon="18.011523934308">
        <ele>18.2</ele>
        <time>2019-08-27T07:52:18Z</time>
      </trkpt>
      <trkpt lat="59.355667210059" lon="18.011489652337">
        <ele>18.4</ele>
        <time>2019-08-27T07:52:20Z</time>
      </trkpt>
      <trkpt lat="59.355587079095" lon="18.011671120472">
        <ele>19</ele>
        <time>2019-08-27T07:52:25Z</time>
      </trkpt>
      <trkpt lat="59.3553687306" lon="18.012316610591">
        <ele>19.8</ele>
        <time>2019-08-27T07:52:34Z</time>
      </trkpt>
      <trkpt lat="59.355276110605" lon="18.012412331889">
        <ele>20.2</ele>
        <time>2019-08-27T07:52:36Z</time>
      </trkpt>
      <trkpt lat="59.35474930819" lon="18.012794797986">
        <ele>20.2</ele>
        <time>2019-08-27T07:52:45Z</time>
      </trkpt>
      <trkpt lat="59.354695915487" lon="18.012831929803">
        <ele>20.4</ele>
        <time>2019-08-27T07:52:46Z</time>
      </trkpt>
      <trkpt lat="59.354588543348" lon="18.012862272281">
        <ele>20.8</ele>
        <time>2019-08-27T07:52:48Z</time>
      </trkpt>
      <trkpt lat="59.354488966376" lon="18.012848525965">
        <ele>21.4</ele>
        <time>2019-08-27T07:52:50Z</time>
      </trkpt>
      <trkpt lat="59.354438842614" lon="18.012840479341">
        <ele>21.6</ele>
        <time>2019-08-27T07:52:51Z</time>
      </trkpt>
      <trkpt lat="59.354368434654" lon="18.012796893461">
        <ele>22.2</ele>
        <time>2019-08-27T07:52:53Z</time>
      </trkpt>
      <trkpt lat="59.35433943328" lon="18.012745931509">
        <ele>22.6</ele>
        <time>2019-08-27T07:52:54Z</time>
      </trkpt>
      <trkpt lat="59.354321998928" lon="18.012680720327">
        <ele>23</ele>
        <time>2019-08-27T07:52:55Z</time>
      </trkpt>
      <trkpt lat="59.3541952646" lon="18.012643001777">
        <ele>23.6</ele>
        <time>2019-08-27T07:52:58Z</time>
      </trkpt>
      <trkpt lat="59.354048162255" lon="18.01266202869">
        <ele>24</ele>
        <time>2019-08-27T07:53:01Z</time>
      </trkpt>
      <trkpt lat="59.353966522549" lon="18.012621292656">
        <ele>24.2</ele>
        <time>2019-08-27T07:53:03Z</time>
      </trkpt>
      <trkpt lat="59.353899299711" lon="18.012525990453">
        <ele>24.4</ele>
        <time>2019-08-27T07:53:05Z</time>
      </trkpt>
      <trkpt lat="59.353807014992" lon="18.012327171785">
        <ele>25</ele>
        <time>2019-08-27T07:53:08Z</time>
      </trkpt>
      <trkpt lat="59.353717161024" lon="18.01208032483">
        <ele>25.8</ele>
        <time>2019-08-27T07:53:12Z</time>
      </trkpt>
      <trkpt lat="59.353726548752" lon="18.012020729521">
        <ele>26</ele>
        <time>2019-08-27T07:53:13Z</time>
      </trkpt>
      <trkpt lat="59.353791927572" lon="18.011890977709">
        <ele>27.4</ele>
        <time>2019-08-27T07:53:16Z</time>
      </trkpt>
      <trkpt lat="59.353822018593" lon="18.0117140358">
        <ele>28.2</ele>
        <time>2019-08-27T07:53:19Z</time>
      </trkpt>
      <trkpt lat="59.353808775191" lon="18.011643124926">
        <ele>28.4</ele>
        <time>2019-08-27T07:53:20Z</time>
      </trkpt>
      <trkpt lat="59.353670725298" lon="18.011318996853">
        <ele>29.4</ele>
        <time>2019-08-27T07:53:25Z</time>
      </trkpt>
      <trkpt lat="59.35352722717" lon="18.011023451059">
        <ele>30.2</ele>
        <time>2019-08-27T07:53:31Z</time>
      </trkpt>
      <trkpt lat="59.353485652946" lon="18.01106695312">
        <ele>30.4</ele>
        <time>2019-08-27T07:53:33Z</time>
      </trkpt>
      <trkpt lat="59.353409210018" lon="18.011327294934">
        <ele>30.6</ele>
        <time>2019-08-27T07:53:37Z</time>
      </trkpt>
      <trkpt lat="59.353343579741" lon="18.011422680956">
        <ele>30.6</ele>
        <time>2019-08-27T07:53:39Z</time>
      </trkpt>
      <trkpt lat="59.35326068275" lon="18.011437265462">
        <ele>30.6</ele>
        <time>2019-08-27T07:53:41Z</time>
      </trkpt>
      <trkpt lat="59.352424672044" lon="18.011211876171">
        <ele>29.2</ele>
        <time>2019-08-27T07:53:55Z</time>
      </trkpt>
      <trkpt lat="59.351837352311" lon="18.011136941985">
        <ele>29</ele>
        <time>2019-08-27T07:54:05Z</time>
      </trkpt>
      <trkpt lat="59.35177457188" lon="18.011135349424">
        <ele>29</ele>
        <time>2019-08-27T07:54:06Z</time>
      </trkpt>
      <trkpt lat="59.351564772923" lon="18.011062594532">
        <ele>29.4</ele>
        <time>2019-08-27T07:54:09Z</time>
      </trkpt>
      <trkpt lat="59.351429489057" lon="18.011105928955">
        <ele>29.8</ele>
        <time>2019-08-27T07:54:11Z</time>
      </trkpt>
      <trkpt lat="59.351044256933" lon="18.011344813105">
        <ele>30.4</ele>
        <time>2019-08-27T07:54:18Z</time>
      </trkpt>
      <trkpt lat="59.350557855276" lon="18.011929282992">
        <ele>29.4</ele>
        <time>2019-08-27T07:54:27Z</time>
      </trkpt>
      <trkpt lat="59.3504820829" lon="18.011985441722">
        <ele>29</ele>
        <time>2019-08-27T07:54:28Z</time>
      </trkpt>
      <trkpt lat="59.350397844805" lon="18.012034140561">
        <ele>28.4</ele>
        <time>2019-08-27T07:54:29Z</time>
      </trkpt>
      <trkpt lat="59.350312600882" lon="18.012065907962">
        <ele>27.8</ele>
        <time>2019-08-27T07:54:30Z</time>
      </trkpt>
      <trkpt lat="59.350225512941" lon="18.012084683418">
        <ele>27.4</ele>
        <time>2019-08-27T07:54:31Z</time>
      </trkpt>
      <trkpt lat="59.350047313747" lon="18.012061297917">
        <ele>26.8</ele>
        <time>2019-08-27T07:54:33Z</time>
      </trkpt>
      <trkpt lat="59.349950083707" lon="18.012029530516">
        <ele>26.4</ele>
        <time>2019-08-27T07:54:34Z</time>
      </trkpt>
      <trkpt lat="59.349856625522" lon="18.011977395098">
        <ele>25.8</ele>
        <time>2019-08-27T07:54:35Z</time>
      </trkpt>
      <trkpt lat="59.349764843717" lon="18.011899946342">
        <ele>25</ele>
        <time>2019-08-27T07:54:36Z</time>
      </trkpt>
      <trkpt lat="59.349667865134" lon="18.011798776809">
        <ele>24.2</ele>
        <time>2019-08-27T07:54:37Z</time>
      </trkpt>
      <trkpt lat="59.349584632867" lon="18.011686710806">
        <ele>23.6</ele>
        <time>2019-08-27T07:54:38Z</time>
      </trkpt>
      <trkpt lat="59.349388664045" lon="18.011326289106">
        <ele>22.4</ele>
        <time>2019-08-27T07:54:41Z</time>
      </trkpt>
      <trkpt lat="59.349323955777" lon="18.011208355773">
        <ele>22.4</ele>
        <time>2019-08-27T07:54:42Z</time>
      </trkpt>
      <trkpt lat="59.349122371082" lon="18.010873079773">
        <ele>22.4</ele>
        <time>2019-08-27T07:54:45Z</time>
      </trkpt>
      <trkpt lat="59.348984991741" lon="18.01046932365">
        <ele>22.2</ele>
        <time>2019-08-27T07:54:48Z</time>
      </trkpt>
      <trkpt lat="59.348769325454" lon="18.00973339283">
        <ele>22.2</ele>
        <time>2019-08-27T07:54:54Z</time>
      </trkpt>
      <trkpt lat="59.348735881673" lon="18.009488976626">
        <ele>22</ele>
        <time>2019-08-27T07:54:56Z</time>
      </trkpt>
      <trkpt lat="59.34875876426" lon="18.009253696693">
        <ele>22</ele>
        <time>2019-08-27T07:54:58Z</time>
      </trkpt>
      <trkpt lat="59.348781227752" lon="18.009021182787">
        <ele>22</ele>
        <time>2019-08-27T07:55:00Z</time>
      </trkpt>
      <trkpt lat="59.348743928297" lon="18.008775006384">
        <ele>21.8</ele>
        <time>2019-08-27T07:55:02Z</time>
      </trkpt>
      <trkpt lat="59.348618535073" lon="18.008475185821">
        <ele>21.2</ele>
        <time>2019-08-27T07:55:05Z</time>
      </trkpt>
      <trkpt lat="59.348481993922" lon="18.008360018515">
        <ele>21</ele>
        <time>2019-08-27T07:55:08Z</time>
      </trkpt>
      <trkpt lat="59.348256939907" lon="18.008816580608">
        <ele>20</ele>
        <time>2019-08-27T07:55:14Z</time>
      </trkpt>
      <trkpt lat="59.348081171464" lon="18.009047669591">
        <ele>19.6</ele>
        <time>2019-08-27T07:55:17Z</time>
      </trkpt>
      <trkpt lat="59.347860895132" lon="18.009199298162">
        <ele>19.2</ele>
        <time>2019-08-27T07:55:20Z</time>
      </trkpt>
      <trkpt lat="59.347707171086" lon="18.009233999228">
        <ele>18.8</ele>
        <time>2019-08-27T07:55:22Z</time>
      </trkpt>
      <trkpt lat="59.347393855664" lon="18.009166692571">
        <ele>17.4</ele>
        <time>2019-08-27T07:55:26Z</time>
      </trkpt>
      <trkpt lat="59.347084228278" lon="18.008909619698">
        <ele>16.4</ele>
        <time>2019-08-27T07:55:30Z</time>
      </trkpt>
      <trkpt lat="59.346707545692" lon="18.008611810791">
        <ele>15.2</ele>
        <time>2019-08-27T07:55:35Z</time>
      </trkpt>
      <trkpt lat="59.346202368579" lon="18.008238313327">
        <ele>14</ele>
        <time>2019-08-27T07:55:42Z</time>
      </trkpt>
      <trkpt lat="59.345646313333" lon="18.007777727922">
        <ele>14.2</ele>
        <time>2019-08-27T07:55:50Z</time>
      </trkpt>
      <trkpt lat="59.345131245578" lon="18.007405403924">
        <ele>14.2</ele>
        <time>2019-08-27T07:55:58Z</time>
      </trkpt>
      <trkpt lat="59.345022699973" lon="18.007331810842">
        <ele>14</ele>
        <time>2019-08-27T07:56:00Z</time>
      </trkpt>
      <trkpt lat="59.344854391421" lon="18.007293757016">
        <ele>13.8</ele>
        <time>2019-08-27T07:56:03Z</time>
      </trkpt>
      <trkpt lat="59.344747270739" lon="18.007261319063">
        <ele>14</ele>
        <time>2019-08-27T07:56:05Z</time>
      </trkpt>
      <trkpt lat="59.344509811512" lon="18.007351592126">
        <ele>14.2</ele>
        <time>2019-08-27T07:56:09Z</time>
      </trkpt>
      <trkpt lat="59.344314429423" lon="18.007386963744">
        <ele>13.8</ele>
        <time>2019-08-27T07:56:12Z</time>
      </trkpt>
      <trkpt lat="59.344111503624" lon="18.007509842398">
        <ele>13</ele>
        <time>2019-08-27T07:56:15Z</time>
      </trkpt>
      <trkpt lat="59.343980410708" lon="18.007614616148">
        <ele>12.4</ele>
        <time>2019-08-27T07:56:17Z</time>
      </trkpt>
      <trkpt lat="59.343552347075" lon="18.008348367674">
        <ele>12</ele>
        <time>2019-08-27T07:56:25Z</time>
      </trkpt>
      <trkpt lat="59.343514879982" lon="18.008449537207">
        <ele>11.8</ele>
        <time>2019-08-27T07:56:26Z</time>
      </trkpt>
      <trkpt lat="59.343357551719" lon="18.008978016002">
        <ele>12.6</ele>
        <time>2019-08-27T07:56:32Z</time>
      </trkpt>
      <trkpt lat="59.343307260319" lon="18.009189658977">
        <ele>13</ele>
        <time>2019-08-27T07:56:34Z</time>
      </trkpt>
      <trkpt lat="59.343209611184" lon="18.009334665847">
        <ele>13.6</ele>
        <time>2019-08-27T07:56:36Z</time>
      </trkpt>
      <trkpt lat="59.343095198249" lon="18.009385376342">
        <ele>14.2</ele>
        <time>2019-08-27T07:56:38Z</time>
      </trkpt>
      <trkpt lat="59.342692196497" lon="18.009307676129">
        <ele>14.6</ele>
        <time>2019-08-27T07:56:45Z</time>
      </trkpt>
      <trkpt lat="59.342512740018" lon="18.009410857318">
        <ele>15.6</ele>
        <time>2019-08-27T07:56:49Z</time>
      </trkpt>
      <trkpt lat="59.342204789012" lon="18.009789719198">
        <ele>16.4</ele>
        <time>2019-08-27T07:56:56Z</time>
      </trkpt>
      <trkpt lat="59.342117617252" lon="18.010006307494">
        <ele>16</ele>
        <time>2019-08-27T07:56:59Z</time>
      </trkpt>
      <trkpt lat="59.342054669183" lon="18.010131449261">
        <ele>15.8</ele>
        <time>2019-08-27T07:57:01Z</time>
      </trkpt>
      <trkpt lat="59.341906812467" lon="18.010337224906">
        <ele>15.6</ele>
        <time>2019-08-27T07:57:04Z</time>
      </trkpt>
      <trkpt lat="59.341456369161" lon="18.010973159659">
        <ele>16</ele>
        <time>2019-08-27T07:57:14Z</time>
      </trkpt>
      <trkpt lat="59.341338184371" lon="18.011307094555">
        <ele>16.6</ele>
        <time>2019-08-27T07:57:18Z</time>
      </trkpt>
      <trkpt lat="59.341267441135" lon="18.011642286736">
        <ele>16.8</ele>
        <time>2019-08-27T07:57:22Z</time>
      </trkpt>
      <trkpt lat="59.341110029053" lon="18.012580975717">
        <ele>16.8</ele>
        <time>2019-08-27T07:57:30Z</time>
      </trkpt>
      <trkpt lat="59.341048170631" lon="18.012718690334">
        <ele>17.2</ele>
        <time>2019-08-27T07:57:32Z</time>
      </trkpt>
      <trkpt lat="59.340949180392" lon="18.012774681426">
        <ele>17</ele>
        <time>2019-08-27T07:57:34Z</time>
      </trkpt>
      <trkpt lat="59.340685569637" lon="18.012713828832">
        <ele>17.6</ele>
        <time>2019-08-27T07:57:39Z</time>
      </trkpt>
      <trkpt lat="59.340540227491" lon="18.012652389505">
        <ele>18.8</ele>
        <time>2019-08-27T07:57:42Z</time>
      </trkpt>
      <trkpt lat="59.340460012708" lon="18.012639481379">
        <ele>18.6</ele>
        <time>2019-08-27T07:57:44Z</time>
      </trkpt>
      <trkpt lat="59.340364207591" lon="18.012685749467">
        <ele>17.6</ele>
        <time>2019-08-27T07:57:46Z</time>
      </trkpt>
      <trkpt lat="59.340311736897" lon="18.012836707486">
        <ele>17</ele>
        <time>2019-08-27T07:57:48Z</time>
      </trkpt>
      <trkpt lat="59.34028382517" lon="18.013055894171">
        <ele>16.6</ele>
        <time>2019-08-27T07:57:50Z</time>
      </trkpt>
      <trkpt lat="59.340248369733" lon="18.013324534066">
        <ele>16.4</ele>
        <time>2019-08-27T07:57:52Z</time>
      </trkpt>
      <trkpt lat="59.340174357556" lon="18.013728960741">
        <ele>15.6</ele>
        <time>2019-08-27T07:57:55Z</time>
      </trkpt>
      <trkpt lat="59.340147535476" lon="18.013860724209">
        <ele>15.2</ele>
        <time>2019-08-27T07:57:56Z</time>
      </trkpt>
      <trkpt lat="59.33989909596" lon="18.014496156048">
        <ele>14.4</ele>
        <time>2019-08-27T07:58:01Z</time>
      </trkpt>
      <trkpt lat="59.339795579495" lon="18.014722132072">
        <ele>14.4</ele>
        <time>2019-08-27T07:58:03Z</time>
      </trkpt>
      <trkpt lat="59.339637245404" lon="18.014975852185">
        <ele>15</ele>
        <time>2019-08-27T07:58:06Z</time>
      </trkpt>
      <trkpt lat="59.33948586829" lon="18.015167294781">
        <ele>15.8</ele>
        <time>2019-08-27T07:58:09Z</time>
      </trkpt>
      <trkpt lat="59.339399199444" lon="18.01526963778">
        <ele>16.6</ele>
        <time>2019-08-27T07:58:11Z</time>
      </trkpt>
      <trkpt lat="59.33936181617" lon="18.015284054648">
        <ele>17</ele>
        <time>2019-08-27T07:58:12Z</time>
      </trkpt>
      <trkpt lat="59.339334323538" lon="18.015280785707">
        <ele>17.6</ele>
        <time>2019-08-27T07:58:13Z</time>
      </trkpt>
      <trkpt lat="59.339312446779" lon="18.015242312786">
        <ele>18.2</ele>
        <time>2019-08-27T07:58:14Z</time>
      </trkpt>
      <trkpt lat="59.339288642183" lon="18.015137539036">
        <ele>19.4</ele>
        <time>2019-08-27T07:58:16Z</time>
      </trkpt>
      <trkpt lat="59.339246900321" lon="18.014888009873">
        <ele>20.6</ele>
        <time>2019-08-27T07:58:20Z</time>
      </trkpt>
      <trkpt lat="59.339213707997" lon="18.014675780165">
        <ele>21.6</ele>
        <time>2019-08-27T07:58:24Z</time>
      </trkpt>
      <trkpt lat="59.339123602572" lon="18.014494144392">
        <ele>22.8</ele>
        <time>2019-08-27T07:58:28Z</time>
      </trkpt>
      <trkpt lat="59.339049087481" lon="18.014307144203">
        <ele>24</ele>
        <time>2019-08-27T07:58:32Z</time>
      </trkpt>
      <trkpt lat="59.338874157228" lon="18.013971197651">
        <ele>25</ele>
        <time>2019-08-27T07:58:39Z</time>
      </trkpt>
      <trkpt lat="59.338760498664" lon="18.013664420111">
        <ele>26</ele>
        <time>2019-08-27T07:58:44Z</time>
      </trkpt>
      <trkpt lat="59.338693862559" lon="18.013439282277">
        <ele>27.2</ele>
        <time>2019-08-27T07:58:48Z</time>
      </trkpt>
      <trkpt lat="59.338560087435" lon="18.013117836412">
        <ele>28.2</ele>
        <time>2019-08-27T07:58:54Z</time>
      </trkpt>
      <trkpt lat="59.338549526241" lon="18.012749451907">
        <ele>29.4</ele>
        <time>2019-08-27T07:58:59Z</time>
      </trkpt>
      <trkpt lat="59.338397562394" lon="18.012708632054">
        <ele>29.8</ele>
        <time>2019-08-27T07:59:03Z</time>
      </trkpt>
      <trkpt lat="59.337831448868" lon="18.012758001445">
        <ele>30.4</ele>
        <time>2019-08-27T07:59:18Z</time>
      </trkpt>
      <trkpt lat="59.337775290138" lon="18.012733358659">
        <ele>30.4</ele>
        <time>2019-08-27T07:59:19Z</time>
      </trkpt>
      <trkpt lat="59.337625002671" lon="18.012751798839">
        <ele>30.4</ele>
        <time>2019-08-27T07:59:22Z</time>
      </trkpt>
      <trkpt lat="59.337258043089" lon="18.012920275029">
        <ele>31.2</ele>
        <time>2019-08-27T07:59:30Z</time>
      </trkpt>
      <trkpt lat="59.337219151073" lon="18.012953299715">
        <ele>31.6</ele>
        <time>2019-08-27T07:59:31Z</time>
      </trkpt>
      <trkpt lat="59.33700650227" lon="18.013178102273">
        <ele>32</ele>
        <time>2019-08-27T07:59:36Z</time>
      </trkpt>
      <trkpt lat="59.336803911747" lon="18.01346752928">
        <ele>31.6</ele>
        <time>2019-08-27T07:59:42Z</time>
      </trkpt>
      <trkpt lat="59.336721769127" lon="18.013591665219">
        <ele>31.2</ele>
        <time>2019-08-27T07:59:44Z</time>
      </trkpt>
      <trkpt lat="59.336610625133" lon="18.013839853278">
        <ele>30.4</ele>
        <time>2019-08-27T07:59:47Z</time>
      </trkpt>
      <trkpt lat="59.336412896112" lon="18.014199520607">
        <ele>29</ele>
        <time>2019-08-27T07:59:52Z</time>
      </trkpt>
      <trkpt lat="59.336308206181" lon="18.014406050623">
        <ele>28.2</ele>
        <time>2019-08-27T07:59:55Z</time>
      </trkpt>
      <trkpt lat="59.336239642239" lon="18.014407727003">
        <ele>28</ele>
        <time>2019-08-27T07:59:56Z</time>
      </trkpt>
      <trkpt lat="59.336207539562" lon="18.014498251523">
        <ele>27.6</ele>
        <time>2019-08-27T07:59:57Z</time>
      </trkpt>
      <trkpt lat="59.336087510754" lon="18.014605707481">
        <ele>27.4</ele>
        <time>2019-08-27T07:59:59Z</time>
      </trkpt>
      <trkpt lat="59.33602749635" lon="18.014488193243">
        <ele>27.2</ele>
        <time>2019-08-27T08:00:01Z</time>
      </trkpt>
      <trkpt lat="59.335948874128" lon="18.014337402862">
        <ele>26.8</ele>
        <time>2019-08-27T08:00:03Z</time>
      </trkpt>
      <trkpt lat="59.335682581165" lon="18.013933646739">
        <ele>25.6</ele>
        <time>2019-08-27T08:00:08Z</time>
      </trkpt>
      <trkpt lat="59.335594487396" lon="18.013759638495">
        <ele>24.2</ele>
        <time>2019-08-27T08:00:10Z</time>
      </trkpt>
      <trkpt lat="59.335474626226" lon="18.013669030156">
        <ele>22.8</ele>
        <time>2019-08-27T08:00:12Z</time>
      </trkpt>
      <trkpt lat="59.33539131014" lon="18.013567609166">
        <ele>21.8</ele>
        <time>2019-08-27T08:00:14Z</time>
      </trkpt>
      <trkpt lat="59.335307742597" lon="18.013469708574">
        <ele>20.6</ele>
        <time>2019-08-27T08:00:18Z</time>
      </trkpt>
      <trkpt lat="59.335313945203" lon="18.013452860955">
        <ele>20.4</ele>
        <time>2019-08-27T08:00:19Z</time>
      </trkpt>
    </trkseg>
  </trk>
</gpx>